Ruthville, North Dakota
Current Conditions -  °F | °C
As of 2:54 PM on Thursday 23 Oct 2014 (Local Time) from KMOT Reporting Station
Clear Clear  
Wind Chill: 68°   Ceiling: Unl
Heat Index: 68°   Visibility: 10mi
Dew Point: 31°   Wind: 14mph
Humidity: 25%   Direction: 210°SSW
Pressure: 29.76"   Gusts: 20mph
Location:  48.1414°N, 101.387°W
Report Text: KMOT 231954Z 21012G17KT 10SM CLR 20/M01 A2976 RMK AO2 SLP079 T02001006
Loading
Personal Weather Stations






























Interactive Weather Map
Tropical Storm Tracking
New forecast layout! Learn more

10-Day Weather Forecast

Advertisements
Track Severe Weather on mobile